Latest Coastal Weather Observations for Sydney Airport

IDN60701

Issued at 3:55 am EST Sunday 20 April 2014 (issued every 10 minutes, with the page automatically refreshed every 10 minutes)

About coastal observations | Map of coastal stations | Coastal observations for NSW | Marine services | Other Formats
Station Details ID: 066037 Name: SYDNEY AIRPORT AMO Lat: -33.95 Lon: 151.17 Height: 6.0 m
Data from the previous 72 hours. | See also: Recent months at Sydney Airport
Date/Time
EST
Temp

°C
Wind Pressure Rain
since 9am
mm
Weather Cloud Vis
km
Sea
Height
m
Swell
Dir
 
Speed
knots
Gust
knots
hPa Trend Height
m
Period
s
Dir
20/03:30am 13.4 N 7 8 1016.7 - 0.0 - Partly cloudy 10 - - - -
20/03:00am 13.3 NNW 7 9 1016.8 F 0.0 Fine Partly cloudy 40 - - - -
20/02:30am 14.0 NNW 6 7 1016.8 - 0.0 - Partly cloudy 10 - - - -
20/02:00am 14.2 NNW 7 7 1017.1 - 0.0 - - 10 - - - -
20/01:30am 14.3 N 5 6 1017.2 - 0.0 - - 10 - - - -
20/01:00am 15.6 NNW 6 8 1017.4 - 0.0 - - 10 - - - -
20/12:00am 15.9 W 8 9 1017.8 R 0.0 Fine Mostly cloudy 40 - - - -
 
Date/Time
EST
Temp

°C
Wind Pressure Rain
since 9am
mm
Weather Cloud Vis
km
Sea
Height
m
Swell
Dir
 
Speed
knots
Gust
knots
hPa Trend Height
m
Period
s
Dir
19/11:30pm 15.9 W 7 9 1017.9 - 0.0 - Partly cloudy 10 - - - -
19/11:00pm 15.9 W 9 11 1017.9 - 0.0 - Cloudy 10 - - - -
19/10:30pm 16.2 W 9 21 1018.1 - 0.0 - Cloudy 10 - - - -
19/10:00pm 16.4 W 9 11 1018.1 - 0.0 - Partly cloudy 10 - - - -
19/09:30pm 17.0 W 9 15 1018.0 - 0.0 - Mostly clear 10 - - - -
19/09:00pm 17.0 W 8 9 1017.9 R 0.0 Fine Mostly cloudy 40 - - - -
19/08:30pm 17.5 SW 7 10 1017.7 - 0.0 - Partly cloudy 10 - - - -
19/08:00pm 18.8 S 10 14 1017.3 - 0.0 - Cloudy 10 - - - -
19/07:30pm 18.5 S 13 16 1016.9 - 0.0 - - 10 - - - -
19/07:00pm 18.6 S 12 15 1016.6 - 0.0 - Mostly clear 10 - - - -
19/06:30pm 18.4 S 14 17 1016.2 - 0.0 - - 10 - - - -
19/06:00pm 18.6 S 14 17 1015.8 S 0.0 Fine Mostly clear 40 - - - -
19/05:30pm 18.5 S 15 19 1015.4 - 0.0 - Mostly clear 10 - - - -
19/05:00pm 18.7 S 15 19 1015.3 - 0.0 - - 10 - - - -
19/04:30pm 18.6 S 16 22 1015.2 - 0.0 - - 10 - - - -
19/04:00pm 18.9 SSE 15 19 1015.1 - 0.0 - - 10 - - - -
19/03:30pm 18.8 S 15 19 1015.0 - 0.0 - - 10 - - - -
19/03:00pm 18.8 S 16 21 1015.0 R 0.0 Fine Mostly clear 25 - - - -
19/02:30pm 18.9 S 17 21 1014.9 - 0.0 - - 10 - - - -
19/02:00pm 19.1 S 16 20 1014.8 - 0.0 - - 10 - - - -
19/01:30pm 19.0 S 15 17 1014.9 - 0.0 - - 10 - - - -
19/01:00pm 19.3 S 15 20 1015.1 - 0.0 - - 10 - - - -
19/12:30pm 19.0 S 14 18 1015.5 - 0.0 - - 10 - - - -
19/12:00pm 19.1 S 15 18 1015.9 R 0.0 Fine Mostly clear 25 - - - -
19/11:30am 19.0 S 15 18 1016.1 - 0.0 - Mostly clear 10 - - - -
19/11:00am 19.0 S 14 18 1016.4 - 0.0 - Mostly clear 10 - - - -
19/10:30am 19.0 S 15 19 1016.6 - 0.0 - Mostly clear 10 - - - -
19/10:13am 18.8 S 15 29 1016.6 - 0.0 - Mostly clear 10 - - - -
19/10:00am 18.9 S 15 20 1016.5 - 0.0 - Mostly clear 10 - - - -
19/09:30am 18.8 S 14 21 1016.5 - 0.0 - Mostly clear 10 - - - -
19/09:00am 18.7 SSW 14 16 1016.5 S 0.0 Haze Mostly clear 20 - - - -
19/08:30am 18.6 S 11 14 1016.6 - 0.0 - Mostly clear 10 - - - -
19/08:00am 17.9 SSW 10 12 1016.4 - 0.0 - Mostly clear 10 - - - -
19/07:30am 17.3 SW 10 13 1016.1 - 0.0 - Mostly clear 10 - - - -
19/07:00am 16.8 SSW 10 11 1015.8 - 0.0 - Mostly clear 10 - - - -
19/06:30am 16.4 SW 10 13 1015.6 - 0.0 - Mostly clear 10 - - - -
19/06:00am 16.6 SW 10 14 1015.4 R 0.0 Fine Mostly clear 20 - - - -
19/05:30am 16.8 SW 10 12 1015.2 - 0.0 - Mostly clear 10 - - - -
19/05:00am 16.7 SW 9 11 1015.0 - 0.0 - Mostly clear 10 - - - -
19/04:30am 16.8 SW 9 10 1014.8 - 0.0 - Mostly clear 10 - - - -
19/04:00am 17.4 SW 9 13 1014.6 - 0.0 - Mostly clear 10 - - - -
19/03:30am 17.8 WSW 10 11 1014.4 - 0.0 - Mostly clear 10 - - - -
19/03:00am 17.8 WSW 8 9 1014.3 R 0.0 Fine Partly cloudy 40 - - - -
19/02:30am 17.6 WSW 7 8 1014.3 - 0.0 - Mostly clear 10 - - - -
19/02:00am 18.3 WSW 7 8 1014.3 - 0.0 - Mostly clear 10 - - - -
19/01:30am 17.1 WSW 7 8 1014.4 - 0.0 - Mostly clear 10 - - - -
19/01:00am 16.8 WSW 5 7 1014.4 - 0.0 - Mostly clear 10 - - - -
19/12:30am 17.1 WNW 8 9 1014.1 - 0.0 - - 10 - - - -
19/12:00am 17.3 W 9 13 1013.9 R 0.0 Fine Mostly clear 40 - - - -
 
Date/Time
EST
Temp

°C
Wind Pressure Rain
since 9am
mm
Weather Cloud Vis
km
Sea
Height
m
Swell
Dir
 
Speed
knots
Gust
knots
hPa Trend Height
m
Period
s
Dir
18/11:30pm 18.0 W 7 9 1013.7 - 0.0 - - 10 - - - -
18/11:00pm 18.9 WNW 9 11 1013.6 - 0.0 - - 10 - - - -
18/10:30pm 19.5 WNW 10 13 1013.6 - 0.0 - - 10 - - - -
18/10:00pm 20.0 WNW 10 13 1013.7 - 0.0 - - 10 - - - -
18/09:30pm 20.0 WNW 14 18 1013.7 - 0.0 - - 10 - - - -
18/09:00pm 20.1 WNW 9 11 1014.0 F 0.0 Fine Mostly clear 40 - - - -
18/08:30pm 20.7 WNW 10 14 1013.8 - 0.0 - Partly cloudy 10 - - - -
18/08:00pm 20.9 WSW 8 10 1013.8 - 0.0 - Cloudy 10 - - - -
18/07:30pm 21.3 W 7 8 1013.6 - 0.0 - Cloudy 10 - - - -
18/07:00pm 21.5 W 7 9 1013.3 - 0.0 - Cloudy 10 - - - -
18/06:30pm 20.1 SW 6 7 1013.2 - 0.0 - Partly cloudy 10 - - - -
18/06:00pm 19.8 S 5 6 1013.0 R 0.0 Fine Partly cloudy 40 - - - -
18/05:30pm 20.9 SSE 6 7 1012.7 - 0.0 - - 10 - - - -
18/05:00pm 21.9 SSE 5 7 1012.4 - 0.0 - - 10 - - - -
18/04:30pm 22.3 SE 7 8 1011.9 - 0.0 - - 10 - - - -
18/04:00pm 22.2 SSE 8 10 1011.8 - 0.0 - Partly cloudy 10 - - - -
18/03:30pm 23.2 S 11 14 1011.7 - 0.0 - Partly cloudy 10 - - - -
18/03:00pm 25.8 W 12 16 1011.6 F 0.0 Fine Partly cloudy 35 - - - -
18/02:30pm 26.0 W 11 15 1011.7 - 0.0 - - 10 - - - -
18/02:00pm 24.6 W 11 16 1012.1 - 0.0 - - 10 - - - -
18/01:30pm 25.4 W 8 12 1012.3 - 0.0 - - 10 - - - -
18/01:00pm 24.2 W 11 15 1012.7 - 0.0 - - 10 - - - -
18/12:30pm 24.2 W 10 15 1013.2 - 0.0 - - 10 - - - -
18/12:00pm 23.6 W 13 17 1013.8 F 0.0 Fine Partly cloudy 30 - - - -
18/11:30am 22.4 W 15 18 1014.5 - 0.0 - - 10 - - - -
18/11:00am 22.4 W 15 19 1015.0 - 0.0 - - 10 - - - -
18/10:30am 21.8 W 13 22 1015.5 - 0.0 - - 10 - - - -
18/10:00am 20.6 W 11 16 1015.9 - 0.0 - - 10 - - - -
18/09:30am 19.4 W 10 16 1016.2 - 0.0 - Mostly clear 10 - - - -
18/09:00am 18.1 WNW 9 12 1016.3 F 0.0 Fine Mostly clear 40 - - - -
18/08:30am 17.4 WNW 11 15 1016.6 - 0.0 - Mostly clear 10 - - - -
18/08:00am 16.3 WNW 11 15 1016.6 - 0.0 - Mostly clear 10 - - - -
18/07:30am 15.0 WNW 12 16 1016.7 - 0.0 - - 10 - - - -
18/07:00am 14.3 WNW 9 13 1016.6 - 0.0 - - 10 - - - -
18/06:30am 13.2 WNW 9 10 1016.5 - 0.0 - Mostly clear 10 - - - -
18/06:00am 13.5 NNW 7 8 1016.4 F 0.0 Fine Mostly clear 40 - - - -
18/05:30am 14.0 NW 7 8 1016.5 - 0.0 - Mostly clear 10 - - - -
18/05:00am 13.7 NW 7 9 1016.6 - 0.0 - - 10 - - - -
18/04:30am 14.1 NW 8 10 1016.7 - 0.0 - Mostly clear 10 - - - -
18/04:00am 14.3 NNW 7 8 1016.9 - 0.0 - Mostly clear 10 - - - -
18/03:30am 14.4 NW 6 7 1017.0 - 0.0 - Mostly clear 10 - - - -
18/03:00am 14.3 NNW 6 8 1017.1 F 0.0 Fine Mostly clear 40 - - - -
18/02:30am 14.5 NW 7 10 1017.1 - 0.0 - Mostly clear 10 - - - -
18/02:00am 15.5 W 6 8 1017.3 - 0.0 - Mostly clear 10 - - - -
18/01:30am 15.0 W 11 14 1017.5 - 0.0 - Mostly clear 10 - - - -
18/01:00am 15.2 W 11 14 1017.6 - 0.0 - Mostly clear 10 - - - -
18/12:30am 15.4 W 12 14 1018.0 - 0.0 - Mostly clear 10 - - - -
18/12:00am 15.7 WNW 12 15 1018.3 F 0.0 Fine Mostly clear 40 - - - -
 
Date/Time
EST
Temp

°C
Wind Pressure Rain
since 9am
mm
Weather Cloud Vis
km
Sea
Height
m
Swell
Dir
 
Speed
knots
Gust
knots
hPa Trend Height
m
Period
s
Dir
17/11:30pm 16.3 W 11 13 1018.5 - 0.0 - Mostly clear 10 - - - -
17/11:00pm 16.9 W 11 14 1018.8 - 0.0 - Mostly clear 10 - - - -
17/10:30pm 16.8 W 11 23 1019.1 - 0.0 - Mostly clear 10 - - - -
17/10:00pm 17.3 WNW 10 12 1019.1 - 0.0 - Mostly clear 10 - - - -
17/09:30pm 18.2 WNW 9 16 1019.2 - 0.0 - Mostly clear 10 - - - -
17/09:00pm 18.4 W 10 15 1019.1 F 0.0 Fine Mostly clear 30 - - - -
17/08:30pm 19.6 S 13 16 1018.9 - 0.0 - Mostly clear 10 - - - -
17/08:00pm 19.6 S 16 18 1018.6 - 0.0 - Mostly clear 10 - - - -
17/07:30pm 19.7 S 14 21 1018.6 - 0.0 - Mostly clear 10 - - - -
17/07:00pm 19.8 S 16 19 1018.4 - 0.0 - Mostly clear 10 - - - -
17/06:30pm 19.8 S 17 22 1018.3 - 0.0 - Mostly clear 10 - - - -
17/06:00pm 19.7 S 17 20 1018.2 F 0.0 Fine Mostly clear 30 - - - -
17/05:30pm 19.8 S 18 22 1017.9 - 0.0 - - 10 - - - -
17/05:00pm 20.0 S 19 23 1017.6 - 0.0 - - 10 - - - -
17/04:30pm 20.2 S 19 29 1017.4 - 0.0 - - 10 - - - -
17/04:00pm 20.5 S 18 23 1017.4 - 0.0 - - 10 - - - -
17/03:30pm 20.7 S 18 22 1017.5 - 0.0 - - 10 - - - -
17/03:00pm 20.9 S 17 21 1017.5 R 0.0 Distant precip. Mostly clear 30 - - - -
17/02:30pm 20.8 S 17 21 1017.6 - 0.0 - - 10 - - - -
17/02:00pm 20.8 S 16 20 1017.7 - 0.0 - - 10 - - - -
17/01:30pm 20.6 S 16 20 1017.9 - 0.0 - Mostly clear 10 - - - -
17/01:00pm 20.9 S 14 18 1018.2 - 0.0 - Mostly clear 10 - - - -
17/12:30pm 20.2 S 17 22 1018.3 - 0.0 - Mostly clear 10 - - - -
17/12:00pm 20.6 S 16 20 1018.7 R 0.0 Distant precip. Mostly cloudy 25 - - - -
17/11:30am 20.4 S 15 21 1019.3 - 0.0 - Mostly clear 10 - - - -
17/11:00am 20.2 S 16 21 1019.6 - 0.0 - Partly cloudy 10 - - - -
17/10:30am 20.1 S 13 17 1019.6 - 0.0 - Mostly clear 10 - - - -
17/10:00am 20.0 SSW 13 18 1019.5 - 0.0 - Mostly clear 10 - - - -
17/09:30am 19.3 SW 7 9 1019.5 - 0.0 - Mostly clear 10 - - - -
17/09:00am 18.6 WSW 8 10 1019.5 R 0.2 Distant precip. Partly cloudy 25 - - - -
17/08:30am 17.6 WSW 10 11 1019.5 - 0.2 - Mostly clear 10 - - - -
17/08:00am 15.8 W 7 8 1019.3 - 0.2 - Mostly clear 10 - - - -
17/07:30am 14.9 NNW 6 7 1019.2 - 0.2 - Mostly clear 10 - - - -
17/07:00am 14.2 W 7 8 1018.8 - 0.2 - Mostly clear 10 - - - -
17/06:30am 13.8 W 9 16 1018.4 - 0.2 - Mostly clear 10 - - - -
17/06:00am 13.6 W 8 10 1018.2 R 0.2 Fine Mostly clear 30 - - - -
17/05:30am 13.5 W 9 10 1018.1 - 0.2 - Partly cloudy 10 - - - -
17/05:00am 13.4 WNW 10 11 1017.9 - 0.2 - Partly cloudy 10 - - - -
17/04:30am 13.3 WNW 7 8 1017.8 - 0.2 - - 10 - - - -
17/04:00am 13.4 WNW 9 10 1017.7 - 0.2 - - 10 - - - -

Other Formats:

Comma delimited format used in spreadsheet applications
http://www.bom.gov.au/fwo/IDN60701/IDN60701.94767.axf

JavaScript Object Notation format (JSON) in row-major order
http://www.bom.gov.au/fwo/IDN60701/IDN60701.94767.json